createdAt,value
2019-02-22T00:01:59.409Z,31.30
2019-02-22T00:04:26.565Z,31.00
2019-02-22T00:06:53.740Z,30.30
2019-02-22T00:09:21.161Z,31.37
2019-02-22T00:11:48.362Z,31.50
2019-02-22T00:14:15.571Z,31.10
2019-02-22T00:16:42.775Z,31.00
2019-02-22T00:19:10.045Z,30.03
2019-02-22T00:21:37.229Z,29.30
2019-02-22T00:24:04.471Z,34.20
2019-02-22T00:26:31.691Z,31.57
2019-02-22T00:28:58.988Z,31.53
2019-02-22T00:31:26.208Z,30.90
2019-02-22T00:33:54.387Z,31.47
2019-02-22T00:36:21.636Z,30.77
2019-02-22T00:38:48.706Z,30.73
2019-02-22T00:41:15.887Z,30.47
2019-02-22T00:43:44.080Z,33.13
2019-02-22T00:46:11.267Z,31.17
2019-02-22T00:48:38.740Z,31.70
2019-02-22T00:51:05.919Z,32.20
2019-02-22T00:53:33.259Z,32.47
2019-02-22T00:56:00.409Z,32.73
2019-02-22T00:58:27.620Z,32.80
2019-02-22T01:00:54.832Z,31.63
2019-02-22T01:03:22.441Z,32.90
2019-02-22T01:05:49.546Z,33.27
2019-02-22T01:08:16.736Z,33.90
2019-02-22T01:10:44.601Z,32.97
2019-02-22T01:13:11.763Z,31.83
2019-02-22T01:15:39.196Z,34.10
2019-02-22T01:18:06.261Z,33.73
2019-02-22T01:20:33.739Z,33.70
2019-02-22T01:23:00.918Z,33.20
2019-02-22T01:25:28.196Z,36.80
2019-02-22T01:27:55.483Z,32.50
2019-02-22T01:30:22.734Z,33.37
2019-02-22T01:32:49.784Z,33.10
2019-02-22T01:35:16.978Z,33.47
2019-02-22T01:37:44.100Z,34.03
2019-02-22T01:40:11.300Z,32.97
2019-02-22T01:42:38.574Z,32.60
2019-02-22T01:45:06.264Z,31.97
2019-02-22T01:47:33.439Z,33.00
2019-02-22T01:50:00.609Z,34.07
2019-02-22T01:52:27.919Z,33.00
2019-02-22T01:54:55.008Z,33.13
2019-02-22T01:57:22.196Z,33.50
2019-02-22T01:59:49.588Z,33.90
2019-02-22T02:02:16.797Z,32.30
2019-02-22T02:04:44.006Z,33.90
2019-02-22T02:07:11.374Z,32.87
2019-02-22T02:09:38.914Z,32.50
2019-02-22T02:12:06.111Z,32.77
2019-02-22T02:14:33.328Z,31.03
2019-02-22T02:17:00.536Z,33.13
2019-02-22T02:19:27.718Z,32.63
2019-02-22T02:21:54.951Z,33.70
2019-02-22T02:24:22.124Z,37.30
2019-02-22T02:26:49.345Z,34.93
2019-02-22T02:29:16.537Z,36.70
2019-02-22T02:31:44.135Z,34.83
2019-02-22T02:34:11.309Z,36.47
2019-02-22T02:36:38.532Z,35.57
2019-02-22T02:39:06.217Z,34.70
2019-02-22T02:41:33.494Z,36.40
2019-02-22T02:44:00.914Z,37.87
2019-02-22T02:46:28.180Z,36.80
2019-02-22T02:48:55.719Z,36.87
2019-02-22T02:51:22.996Z,36.60
2019-02-22T02:53:50.316Z,36.03
2019-02-22T02:56:17.493Z,37.23
2019-02-22T02:58:44.735Z,36.50
2019-02-22T03:01:11.969Z,36.20
2019-02-22T03:03:39.645Z,39.70
2019-02-22T03:06:29.902Z,37.67
2019-02-22T03:08:57.465Z,34.93
2019-02-22T03:11:24.690Z,36.57
2019-02-22T03:13:52.373Z,37.17
2019-02-22T03:16:20.078Z,34.90
2019-02-22T03:18:47.278Z,35.07
2019-02-22T03:21:14.488Z,34.80
2019-02-22T03:23:42.133Z,37.37
2019-02-22T03:26:09.514Z,37.40
2019-02-22T03:28:36.830Z,37.37
2019-02-22T03:31:04.005Z,37.63
2019-02-22T03:33:31.189Z,36.63
2019-02-22T03:35:58.387Z,36.20
2019-02-22T03:38:25.663Z,36.60
2019-02-22T03:40:52.861Z,37.57
2019-02-22T03:43:20.085Z,36.23
2019-02-22T03:46:28.072Z,37.80
2019-02-22T03:49:27.195Z,36.40
2019-02-22T03:55:27.885Z,33.70
2019-02-22T04:00:56.741Z,35.70
2019-02-22T04:03:35.567Z,32.70
2019-02-22T04:06:02.816Z,32.30
2019-02-22T04:11:31.423Z,35.67
2019-02-22T04:13:58.647Z,33.07
2019-02-22T04:16:45.333Z,35.90
2019-02-22T04:19:32.003Z,32.50
2019-02-22T04:25:45.206Z,32.53
2019-02-22T04:28:12.401Z,33.60
2019-02-22T04:30:39.478Z,35.47
2019-02-22T04:35:47.157Z,34.17
2019-02-22T04:38:14.385Z,34.87
2019-02-22T04:46:02.491Z,33.40
2019-02-22T04:49:10.492Z,34.33
2019-02-22T04:51:58.994Z,33.57
2019-02-22T04:54:26.404Z,32.80
2019-02-22T04:57:05.923Z,33.30
2019-02-22T05:03:26.499Z,33.97
2019-02-22T05:05:53.589Z,32.60
2019-02-22T05:08:40.249Z,33.33
2019-02-22T05:11:07.811Z,31.97
2019-02-22T05:13:46.957Z,33.00
2019-02-22T05:19:33.967Z,31.60
2019-02-22T05:22:01.152Z,32.60
2019-02-22T05:24:40.331Z,33.07
2019-02-22T05:27:07.476Z,30.70
2019-02-22T05:29:34.572Z,31.57
2019-02-22T05:32:01.749Z,30.63
2019-02-22T05:34:28.914Z,26.30
2019-02-22T05:36:56.113Z,24.70
2019-02-22T05:39:23.317Z,17.90
2019-02-22T05:41:50.435Z,15.07
2019-02-22T05:44:17.670Z,15.57
2019-02-22T05:47:16.534Z,14.17
2019-02-22T05:50:03.178Z,14.30
2019-02-22T05:52:49.944Z,13.83
2019-02-22T05:58:16.550Z,13.03
2019-02-22T06:01:03.204Z,11.10
2019-02-22T06:03:49.907Z,11.93
2019-02-22T06:06:17.094Z,10.37
2019-02-22T06:08:44.283Z,11.47
2019-02-22T06:11:11.814Z,10.60
2019-02-22T06:13:39.000Z,10.90
2019-02-22T06:16:06.478Z,11.70
2019-02-22T06:18:34.046Z,11.17
2019-02-22T06:21:01.476Z,10.60
2019-02-22T06:23:28.906Z,10.90
2019-02-22T06:29:16.925Z,10.87
2019-02-22T06:34:45.731Z,11.00
2019-02-22T06:40:26.249Z,10.83
2019-02-22T06:42:53.436Z,10.60
2019-02-22T06:45:20.751Z,11.40
2019-02-22T06:48:07.310Z,10.57
2019-02-22T06:50:34.439Z,10.97
2019-02-22T06:53:01.660Z,11.23
2019-02-22T06:55:42.529Z,9.80
2019-02-22T06:58:29.101Z,11.07
2019-02-22T07:00:56.711Z,9.93
2019-02-22T07:03:23.940Z,10.03
2019-02-22T07:05:51.038Z,10.90
2019-02-22T07:08:39.543Z,10.97
2019-02-22T07:11:20.977Z,10.03
2019-02-22T07:13:48.241Z,10.73
2019-02-22T07:16:15.531Z,11.13
2019-02-22T07:18:42.749Z,10.40
2019-02-22T07:21:09.931Z,10.93
2019-02-22T07:23:37.104Z,11.37
2019-02-22T07:26:04.216Z,10.27
2019-02-22T07:28:31.396Z,9.97
2019-02-22T07:30:58.474Z,10.90
2019-02-22T07:33:25.659Z,9.40
2019-02-22T07:35:52.813Z,9.17
2019-02-22T07:38:19.986Z,8.73
2019-02-22T07:40:47.173Z,9.30
2019-02-22T07:43:14.436Z,9.40
2019-02-22T07:45:41.637Z,8.90
2019-02-22T07:48:08.708Z,9.47
2019-02-22T07:50:35.840Z,9.97
2019-02-22T07:53:02.972Z,9.33
2019-02-22T07:55:30.166Z,8.97
2019-02-22T07:57:57.368Z,8.03
2019-02-22T08:00:24.539Z,9.60
2019-02-22T08:02:51.686Z,8.23
2019-02-22T08:05:18.957Z,7.70
2019-02-22T08:07:46.021Z,7.57
2019-02-22T08:10:13.223Z,8.53
2019-02-22T08:12:40.874Z,7.70
2019-02-22T08:15:08.872Z,8.20
2019-02-22T08:17:36.169Z,7.90
2019-02-22T08:20:03.808Z,7.50
2019-02-22T08:22:31.024Z,7.50
2019-02-22T08:24:59.302Z,6.77
2019-02-22T08:27:26.544Z,7.80
2019-02-22T08:29:53.719Z,6.70
2019-02-22T08:32:21.122Z,6.07
2019-02-22T08:34:48.332Z,6.30
2019-02-22T08:37:15.516Z,5.13
2019-02-22T08:39:42.723Z,6.83
2019-02-22T08:42:10.247Z,5.77
2019-02-22T08:44:37.425Z,6.27
2019-02-22T08:47:04.622Z,6.33
2019-02-22T08:49:31.703Z,5.90
2019-02-22T08:51:58.915Z,5.67
2019-02-22T08:54:25.995Z,5.30
2019-02-22T08:56:53.278Z,5.77
2019-02-22T08:59:20.811Z,6.47
2019-02-22T09:01:47.998Z,5.40
2019-02-22T09:04:15.197Z,5.90
2019-02-22T09:06:42.457Z,7.70
2019-02-22T09:09:09.629Z,5.63
2019-02-22T09:11:36.886Z,6.10
2019-02-22T09:14:04.081Z,5.20
2019-02-22T09:16:31.293Z,5.50
2019-02-22T09:18:58.498Z,4.90
2019-02-22T09:21:25.750Z,5.00
2019-02-22T09:23:53.025Z,4.93
2019-02-22T09:26:20.612Z,5.70
2019-02-22T09:28:48.296Z,5.30
2019-02-22T09:31:15.472Z,4.77
2019-02-22T09:33:42.695Z,3.90
2019-02-22T09:36:10.265Z,4.30
2019-02-22T09:38:37.480Z,5.03
2019-02-22T09:41:04.773Z,4.00
2019-02-22T09:43:31.993Z,5.30
2019-02-22T09:46:00.377Z,4.50
2019-02-22T09:48:31.021Z,3.03
2019-02-22T09:50:58.717Z,3.47
2019-02-22T09:53:26.308Z,3.00
2019-02-22T09:56:00.775Z,3.60
2019-02-22T10:01:42.869Z,3.67
2019-02-22T10:04:10.508Z,2.90
2019-02-22T10:06:37.851Z,2.80
2019-02-22T10:09:06.247Z,3.00
2019-02-22T10:11:33.709Z,3.00
2019-02-22T10:14:06.606Z,2.70
2019-02-22T10:16:30.311Z,2.33
2019-02-22T10:18:57.629Z,2.37
2019-02-22T10:21:25.006Z,2.80
2019-02-22T10:23:52.341Z,2.33
2019-02-22T10:26:21.383Z,2.83
2019-02-22T10:28:48.856Z,3.07
2019-02-22T10:31:16.340Z,2.97
2019-02-22T10:33:43.625Z,2.10
2019-02-22T10:36:10.923Z,2.40
2019-02-22T10:38:38.556Z,2.07
2019-02-22T10:41:05.757Z,2.40
2019-02-22T10:43:32.954Z,2.40
2019-02-22T10:46:00.143Z,2.27
2019-02-22T10:48:27.331Z,2.17
2019-02-22T10:50:54.441Z,2.17
2019-02-22T10:53:21.683Z,2.13
2019-02-22T10:55:48.881Z,2.20
2019-02-22T10:58:16.147Z,2.20
2019-02-22T11:00:43.462Z,2.30
2019-02-22T11:03:10.625Z,2.60
2019-02-22T11:05:37.734Z,2.53
2019-02-22T11:08:04.939Z,2.87
2019-02-22T11:10:32.871Z,2.97
2019-02-22T11:13:00.120Z,2.50
2019-02-22T11:15:27.384Z,3.00
2019-02-22T11:17:54.545Z,3.00
2019-02-22T11:20:22.290Z,2.63
2019-02-22T11:22:49.494Z,2.90
2019-02-22T11:25:16.794Z,3.07
2019-02-22T11:27:43.927Z,4.07
2019-02-22T11:30:11.377Z,2.80
2019-02-22T11:32:38.856Z,3.00
2019-02-22T11:35:06.458Z,3.70
2019-02-22T11:37:33.933Z,3.30
2019-02-22T11:40:01.111Z,2.90
2019-02-22T11:42:28.297Z,4.10
2019-02-22T11:44:55.536Z,3.90
2019-02-22T11:47:22.672Z,3.63
2019-02-22T11:49:49.881Z,4.10
2019-02-22T11:52:17.087Z,3.50
2019-02-22T11:54:44.279Z,4.37
2019-02-22T11:57:11.630Z,4.13
2019-02-22T11:59:38.910Z,4.73
2019-02-22T12:02:06.060Z,4.20
2019-02-22T12:04:33.232Z,4.00
2019-02-22T12:07:00.460Z,4.30
2019-02-22T12:09:28.510Z,3.57
2019-02-22T12:11:55.664Z,2.90
2019-02-22T12:14:22.890Z,3.40
2019-02-22T12:16:50.031Z,3.23
2019-02-22T12:19:17.354Z,3.13
2019-02-22T12:21:44.526Z,3.70
2019-02-22T12:24:11.714Z,4.23
2019-02-22T12:26:39.500Z,4.40
2019-02-22T12:29:10.037Z,3.53
2019-02-22T12:31:37.237Z,3.30
2019-02-22T12:34:04.442Z,3.73
2019-02-22T12:36:31.647Z,3.43
2019-02-22T12:38:58.899Z,4.40
2019-02-22T12:41:26.080Z,3.87
2019-02-22T12:43:53.360Z,4.30
2019-02-22T12:46:20.516Z,3.40
2019-02-22T12:48:47.716Z,4.67
2019-02-22T12:51:14.974Z,4.23
2019-02-22T12:53:42.173Z,5.13
2019-02-22T12:56:09.342Z,3.73
2019-02-22T12:58:36.561Z,3.40
2019-02-22T13:01:03.831Z,3.80
2019-02-22T13:03:31.273Z,3.87
2019-02-22T13:05:59.131Z,4.90
2019-02-22T13:08:26.299Z,4.60
2019-02-22T13:10:53.475Z,4.77
2019-02-22T13:13:20.687Z,4.10
2019-02-22T13:15:47.844Z,4.23
2019-02-22T13:18:15.059Z,4.63
2019-02-22T13:20:42.169Z,4.30
2019-02-22T13:23:09.363Z,4.30
2019-02-22T13:25:36.595Z,4.60
2019-02-22T13:28:03.896Z,5.00
2019-02-22T13:30:31.063Z,4.93
2019-02-22T13:32:58.235Z,5.30
2019-02-22T13:35:25.441Z,4.73
2019-02-22T13:37:52.694Z,5.00
2019-02-22T13:40:20.207Z,4.60
2019-02-22T13:42:47.425Z,4.90
2019-02-22T13:45:25.643Z,5.70
2019-02-22T13:47:43.744Z,5.23
2019-02-22T13:50:11.723Z,4.10
2019-02-22T13:52:39.077Z,4.50
2019-02-22T13:55:06.640Z,4.67
2019-02-22T13:57:33.844Z,4.40
2019-02-22T14:00:01.141Z,4.80
2019-02-22T14:02:28.318Z,3.80
2019-02-22T14:04:55.510Z,4.03
2019-02-22T14:07:22.683Z,4.23
2019-02-22T14:09:49.951Z,4.43
2019-02-22T14:12:17.976Z,4.40
2019-02-22T14:14:45.179Z,4.40
2019-02-22T14:17:12.265Z,4.33
2019-02-22T14:19:39.779Z,4.43
2019-02-22T14:22:06.989Z,4.20
2019-02-22T14:24:34.238Z,4.33
2019-02-22T14:27:01.475Z,5.10
2019-02-22T14:29:29.085Z,4.87
2019-02-22T14:31:56.320Z,5.23
2019-02-22T14:34:23.590Z,5.17
2019-02-22T14:36:51.150Z,4.90
2019-02-22T14:39:18.273Z,5.30
2019-02-22T14:41:46.074Z,5.10
2019-02-22T14:44:13.275Z,5.10
2019-02-22T14:46:41.031Z,5.33
2019-02-22T14:49:08.702Z,4.83
2019-02-22T14:51:35.946Z,5.73
2019-02-22T14:54:03.106Z,5.77
2019-02-22T14:56:30.699Z,6.20
2019-02-22T14:58:57.868Z,5.53
2019-02-22T15:01:25.049Z,5.40
2019-02-22T15:03:52.281Z,6.07
2019-02-22T15:06:19.470Z,5.60
2019-02-22T15:08:46.640Z,5.67
2019-02-22T15:11:13.838Z,5.60
2019-02-22T15:13:41.156Z,6.00
2019-02-22T15:16:39.933Z,5.90
2019-02-22T15:19:07.090Z,5.50
2019-02-22T15:21:34.630Z,5.83
2019-02-22T15:24:01.892Z,5.40
2019-02-22T15:26:29.265Z,5.00
2019-02-22T15:28:56.483Z,5.67
2019-02-22T15:31:23.680Z,5.33
2019-02-22T15:33:51.145Z,5.23
2019-02-22T15:36:18.691Z,5.50
2019-02-22T15:38:46.093Z,5.60
2019-02-22T15:41:13.241Z,5.57
2019-02-22T15:43:40.400Z,5.87
2019-02-22T15:46:12.320Z,5.93
2019-02-22T15:48:37.121Z,6.13
2019-02-22T15:51:07.166Z,5.43
2019-02-22T15:53:33.467Z,6.37
2019-02-22T15:56:00.723Z,6.03
2019-02-22T15:58:27.913Z,4.53
2019-02-22T16:00:55.196Z,5.80
2019-02-22T16:03:22.536Z,5.73
2019-02-22T16:05:49.729Z,5.17
2019-02-22T16:08:16.958Z,6.00
2019-02-22T16:10:44.652Z,6.10
2019-02-22T16:13:11.904Z,7.13
2019-02-22T16:15:40.656Z,7.17
2019-02-22T16:18:08.021Z,6.57
2019-02-22T16:20:35.173Z,7.33
2019-02-22T16:23:02.355Z,6.40
2019-02-22T16:25:29.673Z,7.03
2019-02-22T16:27:57.138Z,6.97
2019-02-22T16:30:26.523Z,6.73
2019-02-22T16:32:53.705Z,6.90
2019-02-22T16:35:20.943Z,8.20
2019-02-22T16:37:48.263Z,8.13
2019-02-22T16:40:15.485Z,7.10
2019-02-22T16:42:42.724Z,7.00
2019-02-22T16:45:09.961Z,7.17
2019-02-22T16:47:40.345Z,5.90
2019-02-22T16:50:08.432Z,7.13
2019-02-22T16:52:35.617Z,7.30
2019-02-22T16:55:03.220Z,6.97
2019-02-22T16:57:30.847Z,7.97
2019-02-22T16:59:58.098Z,6.13
2019-02-22T17:02:25.285Z,7.63
2019-02-22T17:04:52.596Z,8.13
2019-02-22T17:07:19.782Z,8.37
2019-02-22T17:09:46.931Z,7.07
2019-02-22T17:12:14.486Z,7.20
2019-02-22T17:14:41.742Z,8.30
2019-02-22T17:17:08.925Z,8.03
2019-02-22T17:19:36.096Z,8.83
2019-02-22T17:22:03.341Z,9.20
2019-02-22T17:24:30.807Z,8.37
2019-02-22T17:26:58.042Z,7.83
2019-02-22T17:29:25.619Z,8.10
2019-02-22T17:31:52.888Z,9.80
2019-02-22T17:34:20.064Z,9.70
2019-02-22T17:36:47.250Z,9.10
2019-02-22T17:39:14.432Z,8.33
2019-02-22T17:41:42.873Z,9.67
2019-02-22T17:44:10.484Z,9.17
2019-02-22T17:46:37.708Z,9.03
2019-02-22T17:49:04.889Z,8.77
2019-02-22T17:51:32.114Z,8.73
2019-02-22T17:53:59.335Z,9.30
2019-02-22T17:56:26.600Z,8.43
2019-02-22T17:58:53.859Z,10.07
2019-02-22T18:01:21.050Z,8.60
2019-02-22T18:03:48.844Z,9.67
2019-02-22T18:06:16.412Z,7.83
2019-02-22T18:08:43.832Z,8.73
2019-02-22T18:11:11.046Z,8.03
2019-02-22T18:13:38.330Z,7.87
2019-02-22T18:16:05.561Z,10.00
2019-02-22T18:18:32.852Z,8.70
2019-02-22T18:21:00.084Z,8.50
2019-02-22T18:23:27.812Z,8.57
2019-02-22T18:25:55.181Z,8.77
2019-02-22T18:28:22.591Z,7.93
2019-02-22T18:30:49.820Z,8.77
2019-02-22T18:33:17.017Z,9.20
2019-02-22T18:35:44.100Z,10.07
2019-02-22T18:38:11.292Z,9.13
2019-02-22T18:40:38.460Z,9.33
2019-02-22T18:43:05.725Z,7.97
2019-02-22T18:45:32.890Z,9.13
2019-02-22T18:48:00.011Z,8.13
2019-02-22T18:50:27.221Z,8.10
2019-02-22T18:52:54.436Z,11.47
2019-02-22T18:55:21.630Z,9.70
2019-02-22T18:57:49.175Z,8.47
2019-02-22T19:00:17.311Z,8.83
2019-02-22T19:02:44.634Z,9.27
2019-02-22T19:05:11.856Z,8.33
2019-02-22T19:07:39.373Z,9.83
2019-02-22T19:10:07.643Z,9.50
2019-02-22T19:12:34.943Z,8.97
2019-02-22T19:15:02.837Z,8.30
2019-02-22T19:17:30.762Z,9.20
2019-02-22T19:19:58.065Z,9.93
2019-02-22T19:22:25.264Z,9.80
2019-02-22T19:24:52.490Z,9.47
2019-02-22T19:27:19.709Z,9.90
2019-02-22T19:29:47.099Z,9.30
2019-02-22T19:32:14.335Z,8.77
2019-02-22T19:34:41.563Z,9.50
2019-02-22T19:37:09.127Z,7.80
2019-02-22T19:39:36.430Z,9.13
2019-02-22T19:42:03.676Z,10.20
2019-02-22T19:44:30.859Z,9.63
2019-02-22T19:46:58.089Z,10.03
2019-02-22T19:49:25.287Z,8.90
2019-02-22T19:51:52.536Z,9.17
2019-02-22T19:54:19.999Z,10.37
2019-02-22T19:56:47.231Z,8.30
2019-02-22T19:59:14.463Z,10.80
2019-02-22T20:01:41.702Z,10.40
2019-02-22T20:04:08.885Z,10.00
2019-02-22T20:06:36.084Z,9.47
2019-02-22T20:09:05.157Z,9.70
2019-02-22T20:11:32.724Z,10.73
2019-02-22T20:14:00.227Z,10.00
2019-02-22T20:16:27.425Z,9.63
2019-02-22T20:18:54.950Z,9.73
2019-02-22T20:21:22.418Z,10.27
2019-02-22T20:23:49.669Z,9.60
2019-02-22T20:26:16.967Z,9.27
2019-02-22T20:28:44.188Z,9.60
2019-02-22T20:31:19.857Z,9.27
2019-02-22T20:33:40.561Z,9.00
2019-02-22T20:36:07.777Z,9.80
2019-02-22T20:38:35.037Z,9.03
2019-02-22T20:41:02.661Z,10.67
2019-02-22T20:43:29.965Z,10.07
2019-02-22T20:45:57.512Z,9.37
2019-02-22T20:48:24.737Z,9.70
2019-02-22T20:50:51.880Z,9.60
2019-02-22T20:53:19.099Z,9.53
2019-02-22T20:55:46.324Z,9.60
2019-02-22T20:58:13.572Z,9.67
2019-02-22T21:00:40.707Z,9.87
2019-02-22T21:03:07.964Z,9.23
2019-02-22T21:05:35.311Z,8.93
2019-02-22T21:08:02.523Z,8.80
2019-02-22T21:10:29.719Z,8.77
2019-02-22T21:12:56.950Z,7.80
2019-02-22T21:15:24.444Z,8.23
2019-02-22T21:17:51.552Z,7.60
2019-02-22T21:20:18.757Z,7.70
2019-02-22T21:22:46.008Z,8.23
2019-02-22T21:25:13.521Z,7.30
2019-02-22T21:27:40.750Z,6.50
2019-02-22T21:30:09.318Z,7.10
2019-02-22T21:32:36.814Z,6.83
2019-02-22T21:35:03.996Z,6.87
2019-02-22T21:37:31.219Z,8.23
2019-02-22T21:39:58.743Z,6.77
2019-02-22T21:42:25.967Z,6.13
2019-02-22T21:44:53.155Z,6.40
2019-02-22T21:47:20.714Z,6.77
2019-02-22T21:49:48.172Z,6.07
2019-02-22T21:52:15.376Z,6.07
2019-02-22T21:54:42.569Z,5.40
2019-02-22T21:57:09.776Z,5.40
2019-02-22T21:59:37.187Z,5.40
2019-02-22T22:02:04.496Z,5.40
2019-02-22T22:04:31.958Z,5.20
2019-02-22T22:06:59.128Z,5.83
2019-02-22T22:09:26.692Z,5.40
2019-02-22T22:11:53.936Z,5.03
2019-02-22T22:14:21.119Z,5.70
2019-02-22T22:16:48.692Z,6.50
2019-02-22T22:19:15.889Z,6.30
2019-02-22T22:21:45.215Z,5.93
2019-02-22T22:24:12.252Z,6.30
2019-02-22T22:26:39.428Z,5.50
2019-02-22T22:29:06.626Z,6.73
2019-02-22T22:31:34.472Z,6.80
2019-02-22T22:34:01.663Z,6.10
2019-02-22T22:36:29.422Z,5.83
2019-02-22T22:38:56.614Z,6.53
2019-02-22T22:41:23.850Z,5.17
2019-02-22T22:43:51.061Z,5.80
2019-02-22T22:46:18.398Z,5.70
2019-02-22T22:48:50.361Z,6.00
2019-02-22T22:51:14.755Z,6.43
2019-02-22T22:53:42.291Z,5.60
2019-02-22T22:56:09.447Z,5.97
2019-02-22T22:58:36.641Z,5.90
2019-02-22T23:01:11.661Z,5.30
2019-02-22T23:03:39.543Z,5.80
2019-02-22T23:06:08.188Z,6.07
2019-02-22T23:08:35.377Z,5.47
2019-02-22T23:11:02.675Z,5.80
2019-02-22T23:13:29.879Z,5.63
2019-02-22T23:15:57.069Z,6.17
2019-02-22T23:18:24.261Z,5.60
2019-02-22T23:20:51.388Z,6.20
2019-02-22T23:23:18.705Z,6.30
2019-02-22T23:25:45.819Z,5.90
2019-02-22T23:28:13.014Z,6.63
2019-02-22T23:30:40.209Z,6.37
2019-02-22T23:33:07.417Z,6.47
2019-02-22T23:35:34.510Z,6.60
2019-02-22T23:38:01.836Z,6.90
2019-02-22T23:40:29.119Z,6.73
2019-02-22T23:42:56.311Z,7.00
2019-02-22T23:45:23.582Z,7.00
2019-02-22T23:47:50.664Z,6.60
2019-02-22T23:50:17.992Z,6.43
2019-02-22T23:52:45.483Z,6.40
2019-02-22T23:55:12.649Z,6.30
2019-02-22T23:57:39.913Z,6.63
